Аэропорт: Бегишево. Набережные Челны, Нижнекамск

ICAO: UWKE

METAR:
2022-06-26 11:30:00
UWKE 261130Z 34007MPS CAVOK 19/06 Q1014 R03/090070 NOSIG RMK QFE744/0992
METAR:
2022-06-26 07:51:00
TAF UWKE 260751Z 2609/2709 35003G12MPS 9999 FEW040 TEMPO 2609/2615 32008G15MPS SCT016 BECMG 2621/2623 26003G10MPS BECMG 2704/2706 BKN020